Time;durP1;ratioP1;P1;durP2;ratioP2;P2;SDS_P1;SDS_P2;PMS_P1;PMS_P2;Temp;Humidity;BMP_temperature;BMP_pressure;BME280_temperature;BME280_humidity;BME280_pressure;Samples;Min_cycle;Max_cycle;Signal;HPM_P1;HPM_P2
2023/07/20 00:01:10;;;;;;;10.70;2.90;;;;;;;26.83;47.47;96724.00;5069156;28;20306;-77
2023/07/20 00:03:37;;;;;;;16.57;4.87;;;;;;;26.74;47.20;96722.44;5066176;28;20199;-79
2023/07/20 00:06:05;;;;;;;16.20;4.93;;;;;;;26.67;47.26;96705.50;5049695;28;20291;-79
2023/07/20 00:08:34;;;;;;;20.40;4.87;;;;;;;26.79;47.11;96708.63;5066164;28;20215;-80
2023/07/20 00:11:01;;;;;;;11.87;4.47;;;;;;;26.89;47.02;96704.72;5049325;28;21105;-81
2023/07/20 00:13:29;;;;;;;13.77;3.77;;;;;;;26.75;46.99;96691.38;5048167;28;20596;-77
2023/07/20 00:15:57;;;;;;;22.27;7.13;;;;;;;26.80;46.77;96662.41;5067045;28;20276;-78
2023/07/20 00:18:24;;;;;;;13.03;4.27;;;;;;;26.85;46.70;96679.50;5032717;28;20220;-77
2023/07/20 00:20:51;;;;;;;13.03;3.67;;;;;;;26.96;46.79;96679.03;5047997;28;20247;-77
2023/07/20 00:23:22;;;;;;;13.83;4.57;;;;;;;26.89;46.41;96648.88;5049436;28;20657;-76
2023/07/20 00:25:50;;;;;;;18.33;5.00;;;;;;;26.96;46.70;96672.88;5047985;28;20661;-79
2023/07/20 00:28:17;;;;;;;22.93;5.67;;;;;;;26.89;46.90;96650.72;5032540;28;20193;-77
2023/07/20 00:30:44;;;;;;;14.23;4.57;;;;;;;26.81;46.74;96646.28;5065874;28;20282;-81
2023/07/20 00:33:12;;;;;;;15.10;4.27;;;;;;;27.12;46.18;96646.19;5049236;28;20201;-77
2023/07/20 00:35:39;;;;;;;5.63;2.63;;;;;;;27.15;45.74;96630.66;5066644;28;20204;-79
2023/07/20 00:38:07;;;;;;;12.67;4.40;;;;;;;27.26;45.90;96624.91;5048261;28;20239;-76
2023/07/20 00:40:41;;;;;;;11.33;4.10;;;;;;;27.49;45.20;96630.16;5032742;28;20235;-77
2023/07/20 00:43:08;;;;;;;12.03;4.50;;;;;;;27.53;44.51;96609.31;5065643;28;20770;-77
2023/07/20 00:45:39;;;;;;;14.67;4.63;;;;;;;27.62;44.40;96617.00;5033373;28;20272;-78
2023/07/20 00:48:07;;;;;;;9.60;2.97;;;;;;;27.75;44.24;96606.53;5031490;28;20205;-78
2023/07/20 00:50:35;;;;;;;11.50;3.63;;;;;;;27.80;44.16;96560.72;5048923;28;20204;-80
2023/07/20 00:53:07;;;;;;;8.67;3.67;;;;;;;28.03;43.83;96553.41;5049229;28;20206;-80
2023/07/20 00:55:35;;;;;;;13.50;4.33;;;;;;;27.97;43.41;96523.03;5065660;28;20224;-79
2023/07/20 00:58:02;;;;;;;11.73;3.97;;;;;;;28.11;44.00;96548.78;5049068;28;20197;-79
2023/07/20 01:00:30;;;;;;;9.13;3.80;;;;;;;28.27;44.59;96552.22;5065522;28;20228;-80
2023/07/20 01:02:57;;;;;;;13.33;4.13;;;;;;;28.26;44.29;96527.41;5066905;28;20586;-80
2023/07/20 01:05:55;;;;;;;12.53;4.03;;;;;;;28.30;45.08;96503.84;5047779;28;20228;-78
2023/07/20 01:08:43;;;;;;;11.47;4.27;;;;;;;28.35;46.93;96534.25;5065490;28;20197;-79
2023/07/20 01:11:22;;;;;;;8.20;3.70;;;;;;;28.24;47.54;96524.09;5066915;28;20308;-76
2023/07/20 01:13:50;;;;;;;9.10;3.67;;;;;;;28.15;47.46;96519.94;5047382;28;20216;-81
2023/07/20 01:16:17;;;;;;;11.90;4.33;;;;;;;28.06;48.38;96513.09;5070391;28;20278;-78
2023/07/20 01:18:45;;;;;;;7.53;3.40;;;;;;;27.91;48.47;96469.69;5070147;28;20237;-80
2023/07/20 01:21:24;;;;;;;9.23;3.60;;;;;;;28.10;48.42;96487.72;5051330;28;20240;-79
2023/07/20 01:24:38;;;;;;;15.27;5.17;;;;;;;27.78;48.92;96493.56;5052361;28;20766;-76
2023/07/20 01:27:36;;;;;;;12.17;4.77;;;;;;;27.74;48.98;96492.28;4968160;28;20208;-80
2023/07/20 01:30:34;;;;;;;20.83;6.07;;;;;;;27.69;49.42;96497.34;4967649;28;20204;-78
2023/07/20 01:33:03;;;;;;;19.23;6.27;;;;;;;27.67;49.23;96502.03;5066654;28;20201;-78
2023/07/20 01:35:32;;;;;;;13.90;4.63;;;;;;;27.44;49.95;96490.72;5068801;28;20197;-78
2023/07/20 01:38:00;;;;;;;22.73;6.17;;;;;;;27.74;49.28;96500.28;5051925;28;20668;-79
2023/07/20 01:40:28;;;;;;;14.80;3.83;;;;;;;27.71;49.50;96497.97;5035320;28;20197;-78
2023/07/20 01:42:55;;;;;;;136.87;127.10;;;;;;;27.81;48.98;96501.16;5050889;28;20635;-79
2023/07/20 01:45:23;;;;;;;38.40;35.17;;;;;;;27.83;49.51;96510.59;5035560;28;20200;-79
2023/07/20 01:47:50;;;;;;;103.83;95.53;;;;;;;27.65;49.12;96498.72;5068372;28;20200;-80
2023/07/20 01:50:17;;;;;;;237.97;220.83;;;;;;;27.50;49.58;96489.97;5035659;28;20282;-79
2023/07/20 01:52:44;;;;;;;95.07;89.37;;;;;;;27.30;50.93;96477.25;5033447;28;20221;-79
2023/07/20 01:55:11;;;;;;;217.00;202.97;;;;;;;27.28;50.89;96479.28;5069712;28;20423;-77
2023/07/20 01:57:38;;;;;;;677.03;632.57;;;;;;;27.22;52.33;96497.81;5051516;28;20243;-76
2023/07/20 02:00:07;;;;;;;393.83;368.27;;;;;;;27.19;52.29;96503.47;5050530;28;20201;-76
2023/07/20 02:02:41;;;;;;;701.87;656.13;;;;;;;27.06;53.47;96492.72;5069908;28;20629;-77
2023/07/20 02:05:09;;;;;;;37.87;33.90;;;;;;;26.84;53.82;96499.75;5050487;28;20255;-76
2023/07/20 02:07:36;;;;;;;21.73;7.77;;;;;;;26.56;54.58;96498.72;5052120;28;20198;-76
2023/07/20 02:10:04;;;;;;;15.57;5.53;;;;;;;26.44;54.49;96502.84;5050215;28;20193;-79
2023/07/20 02:12:32;;;;;;;26.90;7.40;;;;;;;26.24;54.73;96486.56;5034620;28;20217;-77
2023/07/20 02:14:59;;;;;;;9.83;4.83;;;;;;;26.17;54.98;96511.38;5051496;28;20264;-77
2023/07/20 02:17:28;;;;;;;15.77;5.83;;;;;;;26.20;55.04;96513.66;5033711;28;20738;-76
2023/07/20 02:20:16;;;;;;;32.13;20.37;;;;;;;26.25;55.42;96508.66;5054323;28;20251;-76
2023/07/20 02:22:43;;;;;;;26.10;9.43;;;;;;;26.29;54.82;96504.63;5067794;28;20223;-77
2023/07/20 02:25:10;;;;;;;121.37;112.77;;;;;;;26.08;55.49;96512.44;5034382;28;20205;-76
2023/07/20 02:27:41;;;;;;;10.53;7.67;;;;;;;26.26;54.81;96511.13;5033189;28;20207;-79
2023/07/20 02:30:09;;;;;;;29.07;10.97;;;;;;;26.19;54.64;96512.03;5050688;28;20216;-77
2023/07/20 02:32:37;;;;;;;158.03;147.83;;;;;;;26.29;54.61;96513.44;5051294;28;20742;-77
2023/07/20 02:35:04;;;;;;;241.17;226.37;;;;;;;26.17;54.86;96490.94;5049896;28;20236;-76
2023/07/20 02:37:32;;;;;;;275.03;258.20;;;;;;;26.37;54.88;96513.34;5051379;28;20247;-77
2023/07/20 02:40:00;;;;;;;282.87;266.83;;;;;;;26.33;54.84;96495.28;5032746;28;20225;-78
2023/07/20 02:42:28;;;;;;;275.17;258.10;;;;;;;26.48;54.84;96514.75;5068907;28;20234;-78
2023/07/20 02:44:56;;;;;;;331.93;312.17;;;;;;;26.38;55.46;96522.13;5033860;28;20217;-77
2023/07/20 02:47:23;;;;;;;336.27;315.50;;;;;;;25.95;56.95;96514.81;5017076;28;20212;-79
2023/07/20 02:49:50;;;;;;;34.03;30.87;;;;;;;25.83;57.12;96525.88;5050784;28;20197;-78
2023/07/20 02:52:18;;;;;;;33.77;30.90;;;;;;;25.41;58.69;96509.56;5049196;28;20286;-76
2023/07/20 02:54:48;;;;;;;23.20;19.50;;;;;;;25.36;59.37;96521.66;5050821;28;20255;-77
2023/07/20 02:57:15;;;;;;;14.37;5.90;;;;;;;25.48;59.24;96523.78;5049157;28;20197;-78
2023/07/20 02:59:43;;;;;;;20.73;7.07;;;;;;;24.97;60.21;96511.91;5033862;28;20716;-77
2023/07/20 03:02:10;;;;;;;9.87;4.93;;;;;;;25.01;60.35;96496.47;5049554;28;20242;-78
2023/07/20 03:04:38;;;;;;;9.73;5.23;;;;;;;25.23;60.18;96524.88;5049807;28;20200;-78
2023/07/20 03:07:06;;;;;;;15.20;6.03;;;;;;;25.49;59.69;96532.56;5068325;28;20243;-80
2023/07/20 03:09:34;;;;;;;13.73;6.07;;;;;;;25.68;58.87;96550.66;5066679;28;20220;-79
2023/07/20 03:12:01;;;;;;;16.03;6.10;;;;;;;25.82;58.52;96540.13;5068166;28;20217;-78
2023/07/20 03:14:28;;;;;;;14.10;6.57;;;;;;;25.90;58.29;96546.38;5032297;28;20197;-77
2023/07/20 03:16:56;;;;;;;14.20;6.03;;;;;;;25.84;58.01;96554.03;5054918;28;20288;-77
2023/07/20 03:19:23;;;;;;;9.67;4.70;;;;;;;25.73;58.54;96546.50;5082932;28;20228;-78
2023/07/20 03:21:50;;;;;;;14.20;5.27;;;;;;;25.93;57.65;96551.31;5058847;28;20244;-76
2023/07/20 03:24:18;;;;;;;10.70;5.00;;;;;;;25.81;58.49;96540.31;5047145;28;20193;-78
2023/07/20 03:26:47;;;;;;;17.93;6.40;;;;;;;25.74;58.51;96552.63;5070042;28;20257;-78
2023/07/20 03:29:17;;;;;;;15.80;6.33;;;;;;;25.80;58.39;96562.56;5056005;28;20203;-75
2023/07/20 03:31:46;;;;;;;14.93;7.00;;;;;;;25.81;58.85;96553.56;5052868;28;20582;-78
2023/07/20 03:34:14;;;;;;;18.73;8.30;;;;;;;25.88;58.67;96551.06;5088971;28;20203;-76
2023/07/20 03:36:43;;;;;;;19.73;16.53;;;;;;;25.93;58.96;96546.84;5087642;28;20700;-76
2023/07/20 03:39:13;;;;;;;39.90;35.57;;;;;;;25.84;59.16;96556.69;5069374;28;20708;-76
2023/07/20 03:41:40;;;;;;;68.23;62.97;;;;;;;25.55;58.87;96532.69;5069104;28;20207;-76
2023/07/20 03:44:08;;;;;;;71.00;65.27;;;;;;;25.17;60.70;96554.72;5060246;28;20223;-74
2023/07/20 03:46:35;;;;;;;29.87;22.10;;;;;;;25.15;60.67;96532.84;5049898;28;20231;-76
2023/07/20 03:49:03;;;;;;;17.20;10.73;;;;;;;25.13;60.70;96545.47;5015834;28;20228;-76
2023/07/20 03:51:30;;;;;;;23.87;9.73;;;;;;;25.38;60.12;96565.56;5033505;28;20279;-77
2023/07/20 03:53:58;;;;;;;16.13;8.27;;;;;;;25.14;60.99;96554.25;5050109;28;20207;-74
2023/07/20 03:56:26;;;;;;;24.73;9.43;;;;;;;24.97;60.90;96564.91;5069666;28;20230;-76
2023/07/20 03:58:53;;;;;;;17.60;7.80;;;;;;;25.25;59.93;96562.63;5053672;28;20683;-75
2023/07/20 04:01:21;;;;;;;32.73;11.37;;;;;;;24.99;60.01;96514.38;5056181;28;20193;-77
2023/07/20 04:03:49;;;;;;;28.90;10.60;;;;;;;25.56;58.25;96565.31;5076309;28;20311;-76
2023/07/20 04:06:17;;;;;;;34.00;12.80;;;;;;;25.47;58.93;96555.78;5076180;28;20192;-80
2023/07/20 04:08:47;;;;;;;28.87;11.90;;;;;;;25.83;57.99;96567.50;5058608;28;20780;-74
2023/07/20 04:11:15;;;;;;;14.47;8.80;;;;;;;26.12;57.09;96566.81;5057001;28;20200;-75
2023/07/20 04:13:42;;;;;;;41.70;22.37;;;;;;;26.57;55.84;96564.13;5056451;28;20705;-76
2023/07/20 04:16:10;;;;;;;26.33;23.50;;;;;;;26.80;54.78;96572.88;5049610;28;20237;-76
2023/07/20 04:18:37;;;;;;;33.83;26.83;;;;;;;27.10;54.23;96569.22;5047943;28;20650;-77
2023/07/20 04:21:04;;;;;;;59.23;54.40;;;;;;;27.60;53.23;96591.59;5032942;28;20221;-74
2023/07/20 04:23:31;;;;;;;98.50;91.73;;;;;;;28.20;51.31;96594.75;5047668;28;20751;-77
2023/07/20 04:25:59;;;;;;;181.13;170.70;;;;;;;28.31;50.73;96574.78;5049171;28;20194;-77
2023/07/20 04:28:26;;;;;;;281.80;266.30;;;;;;;28.40;50.38;96593.09;5060153;28;20263;-76
2023/07/20 04:30:54;;;;;;;283.93;267.07;;;;;;;28.63;49.64;96585.75;5041159;28;20696;-78
2023/07/20 04:33:22;;;;;;;293.30;276.13;;;;;;;28.89;49.09;96582.47;5081009;28;20276;-78
2023/07/20 04:35:58;;;;;;;312.27;292.07;;;;;;;28.72;49.23;96573.09;5026051;28;20224;-78
2023/07/20 04:38:34;;;;;;;378.40;353.60;;;;;;;28.83;48.67;96576.06;5069668;28;20210;-78
2023/07/20 04:41:14;;;;;;;347.17;324.93;;;;;;;29.09;49.31;96578.06;5067560;28;20204;-78
2023/07/20 04:43:45;;;;;;;357.87;334.47;;;;;;;29.29;48.54;96572.88;5068528;28;20235;-80
2023/07/20 04:46:17;;;;;;;325.83;306.90;;;;;;;29.47;47.37;96557.19;5087113;28;20283;-78
2023/07/20 04:48:46;;;;;;;363.60;339.53;;;;;;;29.46;47.84;96555.50;5051143;28;20193;-80
2023/07/20 04:51:13;;;;;;;438.50;408.87;;;;;;;29.44;47.56;96568.22;5056281;28;20192;-78
2023/07/20 04:53:40;;;;;;;311.23;292.07;;;;;;;29.49;47.22;96577.28;5055072;28;20201;-79
2023/07/20 04:56:10;;;;;;;328.03;308.13;;;;;;;29.47;47.72;96567.84;5056294;28;20258;-78
2023/07/20 04:58:38;;;;;;;454.77;425.20;;;;;;;29.50;47.66;96583.44;5071787;28;20671;-77
2023/07/20 05:01:05;;;;;;;276.73;260.73;;;;;;;29.24;48.27;96586.00;5090727;28;20188;-80
2023/07/20 05:03:34;;;;;;;250.57;235.77;;;;;;;29.48;49.00;96572.16;5055944;28;20242;-79
2023/07/20 05:06:02;;;;;;;71.27;64.60;;;;;;;29.61;48.15;96570.34;5071531;28;20554;-77
2023/07/20 05:08:29;;;;;;;46.50;37.63;;;;;;;29.62;48.80;96573.84;5056094;28;20334;-80
2023/07/20 05:10:59;;;;;;;165.20;154.30;;;;;;;29.81;47.56;96583.81;5054734;28;20207;-81
2023/07/20 05:13:27;;;;;;;184.53;172.23;;;;;;;29.82;47.13;96577.44;5090493;28;20211;-80
2023/07/20 05:15:54;;;;;;;170.77;160.50;;;;;;;29.82;47.31;96574.75;5088941;28;20300;-78
2023/07/20 05:18:23;;;;;;;294.50;275.87;;;;;;;29.99;48.37;96578.72;5038895;28;20196;-78
2023/07/20 05:20:55;;;;;;;184.80;174.80;;;;;;;30.19;46.82;96579.56;5071780;28;20232;-78
2023/07/20 05:23:25;;;;;;;175.73;164.80;;;;;;;30.13;47.81;96568.91;5054584;28;20232;-81
2023/07/20 05:25:57;;;;;;;138.20;130.27;;;;;;;30.14;46.86;96550.00;5055433;28;20602;-79
2023/07/20 05:28:36;;;;;;;125.27;116.57;;;;;;;30.56;46.76;96578.22;5053843;28;20201;-81
2023/07/20 05:31:06;;;;;;;122.20;113.07;;;;;;;30.37;45.36;96574.53;5038719;28;20203;-79
2023/07/20 05:33:34;;;;;;;118.73;111.93;;;;;;;30.44;46.32;96548.59;5054192;28;20233;-80
2023/07/20 05:36:03;;;;;;;180.20;169.07;;;;;;;30.80;46.09;96582.13;5054838;28;20251;-76
2023/07/20 05:38:43;;;;;;;193.33;181.67;;;;;;;30.93;44.68;96571.44;5075526;28;20193;-77
2023/07/20 05:41:18;;;;;;;205.13;191.77;;;;;;;30.86;44.19;96584.00;5069717;28;20200;-80
2023/07/20 05:43:53;;;;;;;303.30;283.53;;;;;;;30.59;44.45;96550.25;5090108;28;20226;-78
2023/07/20 05:46:24;;;;;;;346.40;324.80;;;;;;;30.79;44.36;96554.53;5070802;28;20740;-78
2023/07/20 05:48:52;;;;;;;408.33;380.00;;;;;;;30.91;42.81;96562.81;5089410;28;20227;-80
2023/07/20 05:51:20;;;;;;;480.80;447.63;;;;;;;30.98;43.33;96553.72;5054865;28;20632;-79
2023/07/20 05:53:47;;;;;;;595.73;553.43;;;;;;;31.09;42.42;96562.97;5053232;28;20582;-81
2023/07/20 05:56:40;;;;;;;667.00;618.90;;;;;;;31.15;42.87;96564.81;5071753;28;20287;-77
2023/07/20 05:59:09;;;;;;;931.03;867.60;;;;;;;31.29;42.03;96539.66;5053871;28;20206;-80
2023/07/20 06:01:36;;;;;;;568.10;526.77;;;;;;;31.58;42.54;96549.03;5070100;28;20200;-81
2023/07/20 06:04:04;;;;;;;475.53;443.57;;;;;;;31.56;41.98;96537.72;5089036;28;20225;-78
2023/07/20 06:06:31;;;;;;;355.33;331.75;;;;;;;31.29;41.81;96494.97;5070513;28;20275;-78
2023/07/20 06:09:05;;;;;;;281.90;263.73;;;;;;;31.53;40.86;96514.06;5071431;28;20196;-80
2023/07/20 06:11:32;;;;;;;162.98;151.95;;;;;;;31.68;41.38;96547.56;5054064;28;20207;-79
2023/07/20 06:14:02;;;;;;;154.37;144.50;;;;;;;31.89;40.98;96535.69;5089029;28;20200;-79
2023/07/20 06:16:30;;;;;;;58.05;52.00;;;;;;;31.92;41.23;96530.72;5087602;28;20672;-81
2023/07/20 06:19:01;;;;;;;44.45;21.80;;;;;;;32.08;39.78;96540.97;5054121;28;20201;-78
2023/07/20 06:21:31;;;;;;;44.17;15.98;;;;;;;32.03;40.92;96521.22;5088275;28;20303;-79
2023/07/20 06:23:58;;;;;;;49.83;19.65;;;;;;;32.04;39.79;96512.97;5087530;28;20345;-78
2023/07/20 06:26:26;;;;;;;28.45;14.38;;;;;;;31.80;40.46;96532.44;5088954;28;20252;-80
2023/07/20 06:28:54;;;;;;;45.75;18.20;;;;;;;31.97;39.75;96511.34;5068971;28;20266;-78
2023/07/20 06:31:21;;;;;;;36.53;16.25;;;;;;;32.32;40.33;96525.13;5070581;28;20710;-78
2023/07/20 06:33:48;;;;;;;38.75;21.27;;;;;;;32.40;40.13;96538.25;5069115;28;20217;-77
2023/07/20 06:36:18;;;;;;;42.08;25.38;;;;;;;32.36;39.86;96515.59;5088679;28;20193;-78
2023/07/20 06:38:46;;;;;;;47.45;43.53;;;;;;;32.45;40.38;96522.34;5069734;28;20779;-78
2023/07/20 06:41:18;;;;;;;80.78;72.38;;;;;;;32.52;39.80;96531.19;5052872;28;20197;-77
2023/07/20 06:43:48;;;;;;;228.05;212.50;;;;;;;32.49;39.58;96532.47;5088399;28;20301;-79
2023/07/20 06:46:18;;;;;;;63.45;52.03;;;;;;;32.57;38.98;96526.81;5086563;28;20239;-79
2023/07/20 06:48:47;;;;;;;96.13;87.35;;;;;;;32.41;39.42;96513.94;5070726;28;20242;-79
2023/07/20 06:51:17;;;;;;;132.48;122.53;;;;;;;32.46;39.68;96537.44;5053242;28;20238;-80
2023/07/20 06:53:44;;;;;;;92.55;85.20;;;;;;;32.31;39.97;96524.31;5093846;28;20275;-80
2023/07/20 06:56:13;;;;;;;34.45;15.32;;;;;;;31.97;40.52;96514.88;5078090;28;20208;-78
2023/07/20 06:58:43;;;;;;;42.63;16.80;;;;;;;31.90;40.48;96508.69;5071828;28;20782;-79
2023/07/20 07:01:10;;;;;;;53.78;21.85;;;;;;;31.90;40.72;96516.72;5055238;28;20232;-81
2023/07/20 07:03:39;;;;;;;38.72;15.68;;;;;;;31.58;40.70;96468.72;5089278;28;20312;-79
2023/07/20 07:06:08;;;;;;;62.30;18.17;;;;;;;32.17;40.41;96512.03;5071032;28;20192;-78
2023/07/20 07:08:40;;;;;;;22.08;9.15;;;;;;;32.23;40.29;96515.72;5070065;28;20604;-77
2023/07/20 07:11:09;;;;;;;44.40;12.50;;;;;;;32.19;39.13;96509.16;5069239;28;20616;-80
2023/07/20 07:13:37;;;;;;;24.35;9.77;;;;;;;32.19;39.55;96503.81;5069399;28;20235;-77
2023/07/20 07:16:04;;;;;;;28.83;11.35;;;;;;;32.14;38.54;96491.03;5086299;28;20668;-78
2023/07/20 07:18:37;;;;;;;46.80;13.85;;;;;;;32.27;39.36;96508.88;5069847;28;20287;-79
2023/07/20 07:21:04;;;;;;;30.77;11.00;;;;;;;31.97;39.60;96511.34;5067907;28;20306;-79
2023/07/20 07:23:32;;;;;;;35.50;15.75;;;;;;;31.78;40.10;96505.06;5069531;28;20776;-80
2023/07/20 07:25:59;;;;;;;34.03;13.45;;;;;;;31.84;40.19;96496.16;5051622;28;20223;-79
2023/07/20 07:28:28;;;;;;;52.72;21.38;;;;;;;31.79;40.77;96505.88;5086434;28;20280;-79
2023/07/20 07:30:56;;;;;;;56.00;51.20;;;;;;;31.43;42.23;96519.84;5086115;28;20215;-79
2023/07/20 07:33:27;;;;;;;71.07;62.80;;;;;;;31.72;41.45;96513.13;5067114;28;20275;-79
2023/07/20 07:35:55;;;;;;;54.65;48.72;;;;;;;31.81;40.78;96499.28;5052412;28;20288;-80
2023/07/20 07:38:25;;;;;;;118.32;109.05;;;;;;;31.96;41.55;96509.72;5086073;28;20196;-79
2023/07/20 07:40:58;;;;;;;108.90;100.93;;;;;;;32.00;40.07;96486.81;5053647;28;20192;-79
2023/07/20 07:43:26;;;;;;;100.93;91.82;;;;;;;32.41;39.66;96521.16;5068685;28;20319;-79
2023/07/20 07:45:55;;;;;;;219.88;204.13;;;;;;;32.32;39.54;96523.28;5051340;28;20254;-79
2023/07/20 07:48:25;;;;;;;229.85;214.70;;;;;;;32.49;39.79;96512.84;5086725;28;20220;-79
2023/07/20 07:50:55;;;;;;;566.25;525.95;;;;;;;32.65;38.76;96510.44;5066852;28;20208;-79
2023/07/20 07:53:25;;;;;;;407.20;378.23;;;;;;;32.74;38.77;96510.97;5068829;28;20201;-78
2023/07/20 07:55:55;;;;;;;514.22;475.55;;;;;;;32.92;38.98;96527.09;5050896;28;20628;-80
2023/07/20 07:58:23;;;;;;;233.90;218.18;;;;;;;32.91;37.69;96516.59;5086924;28;20706;-78
2023/07/20 08:00:55;;;;;;;471.85;438.67;;;;;;;32.95;38.19;96515.94;5086814;28;20197;-80
2023/07/20 08:03:24;;;;;;;324.83;302.52;;;;;;;32.96;37.86;96504.16;5067146;28;20255;-78
2023/07/20 08:05:59;;;;;;;231.27;215.98;;;;;;;33.05;37.62;96510.91;5052426;28;20280;-80
2023/07/20 08:08:27;;;;;;;176.98;163.45;;;;;;;32.96;38.09;96520.25;5049585;28;20207;-80
2023/07/20 08:10:55;;;;;;;306.77;285.75;;;;;;;32.68;37.89;96503.81;5068772;28;20193;-78
2023/07/20 08:13:23;;;;;;;217.68;203.23;;;;;;;32.68;38.51;96493.91;5062342;28;20201;-78
2023/07/20 08:15:52;;;;;;;366.20;342.00;;;;;;;32.96;38.22;96506.81;5050444;28;20200;-77
2023/07/20 08:18:25;;;;;;;489.25;455.65;;;;;;;32.99;38.42;96505.59;5068518;28;20204;-77
2023/07/20 08:20:57;;;;;;;505.65;468.73;;;;;;;32.93;37.39;96501.91;5051090;28;20682;-77
2023/07/20 08:23:28;;;;;;;133.90;123.53;;;;;;;32.93;38.23;96507.28;5051556;28;20236;-78
2023/07/20 08:25:55;;;;;;;300.15;277.88;;;;;;;33.03;37.74;96520.22;5064557;28;20228;-78
2023/07/20 08:28:22;;;;;;;423.33;392.92;;;;;;;32.87;38.05;96518.91;5077044;28;20217;-78
2023/07/20 08:30:50;;;;;;;460.20;428.08;;;;;;;32.53;38.44;96508.69;5067691;28;20243;-80
2023/07/20 08:33:19;;;;;;;517.38;481.08;;;;;;;32.68;38.33;96517.22;5085842;28;20866;-78
2023/07/20 08:35:48;;;;;;;51.92;44.00;;;;;;;33.00;38.19;96518.78;5067804;28;20287;-78
2023/07/20 08:38:16;;;;;;;63.70;56.50;;;;;;;33.27;37.69;96503.19;5085077;28;20801;-78
2023/07/20 08:40:46;;;;;;;301.05;281.05;;;;;;;33.11;36.86;96520.75;5051310;28;20204;-76
2023/07/20 08:43:18;;;;;;;377.42;350.20;;;;;;;33.25;37.39;96516.88;5030335;28;20249;-78
2023/07/20 08:45:48;;;;;;;410.67;380.58;;;;;;;33.46;36.80;96513.72;5032069;28;20211;-78
2023/07/20 08:48:18;;;;;;;606.70;565.33;;;;;;;33.54;37.00;96509.94;5036583;28;20204;-81
2023/07/20 08:50:50;;;;;;;378.90;352.48;;;;;;;33.40;36.65;96498.50;5036908;28;20570;-78
2023/07/20 08:53:18;;;;;;;264.88;249.10;;;;;;;33.45;36.95;96484.38;5050939;28;20198;-78
2023/07/20 08:55:48;;;;;;;46.08;15.20;;;;;;;33.39;36.94;96453.88;5070750;28;20189;-79
2023/07/20 08:58:17;;;;;;;150.10;136.70;;;;;;;33.96;35.96;96498.19;5080184;28;20193;-77
2023/07/20 09:00:44;;;;;;;568.40;526.85;;;;;;;33.97;35.33;96490.94;5046681;28;20192;-78
2023/07/20 09:03:14;;;;;;;368.50;343.23;;;;;;;34.22;35.29;96491.59;5065636;28;20208;-79
2023/07/20 09:05:44;;;;;;;381.55;355.40;;;;;;;34.08;35.35;96468.69;5055749;28;20630;-77
2023/07/20 09:08:11;;;;;;;152.27;141.18;;;;;;;33.93;35.77;96454.81;5085144;28;20294;-77
2023/07/20 09:10:39;;;;;;;272.63;253.70;;;;;;;34.37;35.27;96489.31;5067732;28;20207;-79
2023/07/20 09:13:06;;;;;;;1034.07;962.20;;;;;;;34.55;34.63;96491.91;5040091;28;20212;-80
2023/07/20 09:15:36;;;;;;;757.42;704.72;;;;;;;34.47;35.36;96478.78;5067988;28;21215;-80
2023/07/20 09:18:06;;;;;;;1051.10;973.13;;;;;;;34.58;34.82;96483.41;5054289;28;20209;-80
2023/07/20 09:20:36;;;;;;;1062.00;987.47;;;;;;;34.57;34.13;96484.44;5031405;28;20328;-78
2023/07/20 09:23:05;;;;;;;976.25;910.63;;;;;;;34.65;33.88;96485.94;5031055;28;20331;-78
2023/07/20 09:25:36;;;;;;;1025.80;957.17;;;;;;;34.39;34.36;96479.13;5066067;28;20224;-78
2023/07/20 09:28:06;;;;;;;1024.07;948.25;;;;;;;34.24;35.52;96468.00;5068646;28;20288;-78
2023/07/20 09:30:34;;;;;;;1051.17;969.77;;;;;;;34.23;34.95;96458.31;5081677;28;20627;-79
2023/07/20 09:33:02;;;;;;;1032.10;951.50;;;;;;;34.40;34.87;96445.78;5040642;28;20201;-78
2023/07/20 09:35:30;;;;;;;942.50;878.53;;;;;;;34.52;35.10;96441.25;5067360;28;20282;-76
2023/07/20 09:38:17;;;;;;;825.90;769.38;;;;;;;34.62;34.68;96454.97;5071204;28;20200;-78
2023/07/20 09:40:50;;;;;;;686.67;638.25;;;;;;;34.69;34.58;96449.44;5071695;28;20287;-77
2023/07/20 09:43:23;;;;;;;1000.10;934.53;;;;;;;34.66;33.88;96423.84;5067319;28;20200;-77
2023/07/20 09:46:05;;;;;;;1010.50;943.55;;;;;;;34.25;35.14;96440.88;5056935;28;20197;-79
2023/07/20 09:48:35;;;;;;;915.92;854.45;;;;;;;34.33;34.37;96439.72;5037967;28;20626;-81
2023/07/20 09:51:28;;;;;;;984.78;917.85;;;;;;;34.38;35.06;96435.28;5056920;28;20207;-79
2023/07/20 09:54:05;;;;;;;901.65;840.22;;;;;;;34.02;34.14;96388.97;5072879;28;20238;-78
2023/07/20 09:56:37;;;;;;;651.33;605.38;;;;;;;34.16;34.84;96410.00;5069820;28;20286;-80
2023/07/20 09:59:04;;;;;;;389.55;360.70;;;;;;;33.93;34.82;96404.56;5038925;28;20586;-79
2023/07/20 10:01:34;;;;;;;548.25;507.70;;;;;;;33.89;35.02;96416.84;5088264;28;21036;-77
2023/07/20 10:04:09;;;;;;;253.05;235.52;;;;;;;34.22;35.82;96421.69;5057849;28;20720;-76
2023/07/20 10:06:43;;;;;;;29.27;21.00;;;;;;;33.75;36.61;96428.00;5072462;28;20205;-77
2023/07/20 10:09:15;;;;;;;54.90;24.48;;;;;;;33.63;36.82;96401.13;5070904;28;20211;-76
2023/07/20 10:11:51;;;;;;;43.40;21.15;;;;;;;33.59;36.62;96443.72;5071574;28;20208;-78
2023/07/20 10:14:43;;;;;;;32.15;11.82;;;;;;;33.47;37.02;96418.66;5055839;28;20318;-80
2023/07/20 10:17:16;;;;;;;28.83;9.10;;;;;;;33.56;37.43;96427.25;5070472;28;20195;-78
2023/07/20 10:19:47;;;;;;;20.63;17.92;;;;;;;33.43;37.36;96414.78;5088992;28;20279;-78
2023/07/20 10:22:26;;;;;;;62.88;57.28;;;;;;;33.54;37.76;96424.81;5087064;28;20313;-80
2023/07/20 10:24:58;;;;;;;176.18;165.57;;;;;;;33.28;37.97;96382.19;5089151;28;20224;-79
2023/07/20 10:27:29;;;;;;;691.42;641.05;;;;;;;33.47;37.27;96393.66;5069303;28;20206;-80
2023/07/20 10:29:59;;;;;;;597.97;548.70;;;;;;;33.42;37.90;96415.84;5038081;28;20197;-78
2023/07/20 10:32:28;;;;;;;511.17;470.88;;;;;;;33.40;37.66;96415.25;5088170;28;20193;-79
2023/07/20 10:34:57;;;;;;;1037.03;950.80;;;;;;;33.02;38.47;96412.03;5069704;28;20200;-80
2023/07/20 10:37:50;;;;;;;1031.60;946.20;;;;;;;33.26;37.82;96415.66;5070938;28;20251;-79
2023/07/20 10:40:25;;;;;;;1037.33;950.20;;;;;;;33.37;37.63;96404.13;5069129;28;20687;-80
2023/07/20 10:43:04;;;;;;;725.13;664.60;;;;;;;33.39;36.89;96394.81;5071225;28;20200;-80
2023/07/20 10:45:52;;;;;;;500.27;465.60;;;;;;;33.71;35.95;96416.91;5069918;28;20224;-79
2023/07/20 10:48:23;;;;;;;479.80;443.20;;;;;;;33.76;35.74;96410.84;5068197;28;20193;-79
2023/07/20 10:51:38;;;;;;;131.07;118.28;;;;;;;33.95;35.30;96412.41;5054230;28;20692;-78
2023/07/20 10:54:28;;;;;;;696.47;642.63;;;;;;;33.58;35.81;96401.81;5052901;28;20219;-77
2023/07/20 10:56:58;;;;;;;583.47;538.50;;;;;;;33.74;36.13;96386.88;5052794;28;20204;-78
2023/07/20 10:59:25;;;;;;;214.50;197.18;;;;;;;33.73;36.47;96395.19;5088760;28;20199;-78
2023/07/20 11:02:01;;;;;;;235.68;218.95;;;;;;;33.79;36.34;96378.13;5052258;28;20197;-78
2023/07/20 11:04:49;;;;;;;41.78;36.75;;;;;;;34.09;36.44;96386.97;5070149;28;20238;-79
2023/07/20 11:07:38;;;;;;;125.35;117.35;;;;;;;34.11;36.51;96392.91;5071607;28;20283;-77
2023/07/20 11:10:17;;;;;;;155.55;145.13;;;;;;;33.86;36.56;96394.97;5086954;28;20283;-78
2023/07/20 11:13:24;;;;;;;499.10;461.17;;;;;;;33.64;37.34;96408.13;5070376;28;20298;-77
2023/07/20 11:15:57;;;;;;;946.17;868.33;;;;;;;33.60;37.65;96402.41;5069629;28;20680;-78
2023/07/20 11:18:26;;;;;;;952.50;875.07;;;;;;;33.60;37.02;96391.66;5086668;28;20211;-79
2023/07/20 11:20:56;;;;;;;488.52;453.40;;;;;;;33.46;37.52;96389.34;5069891;28;20244;-78
2023/07/20 11:23:27;;;;;;;432.58;403.15;;;;;;;33.45;38.37;96369.72;5068709;28;20220;-80
2023/07/20 11:26:06;;;;;;;170.02;158.65;;;;;;;33.48;38.07;96366.59;5088000;28;20205;-77
2023/07/20 11:28:36;;;;;;;28.08;13.80;;;;;;;33.81;37.84;96363.44;5069361;28;20378;-78